sensor_id;sensor_type;location;lat;lon;timestamp;P1;durP1;ratioP1;P2;durP2;ratioP2
1412;SDS011;701;52.526;13.408;2023-04-15T00:01:24;39.10;;;19.42;;
1412;SDS011;701;52.526;13.408;2023-04-15T00:03:51;38.90;;;19.60;;
1412;SDS011;701;52.526;13.408;2023-04-15T00:06:18;35.42;;;19.55;;
1412;SDS011;701;52.526;13.408;2023-04-15T00:08:45;37.65;;;20.25;;
1412;SDS011;701;52.526;13.408;2023-04-15T00:11:11;38.25;;;20.27;;
1412;SDS011;701;52.526;13.408;2023-04-15T00:13:38;36.95;;;20.15;;
1412;SDS011;701;52.526;13.408;2023-04-15T00:16:04;41.07;;;20.53;;
1412;SDS011;701;52.526;13.408;2023-04-15T00:18:31;40.20;;;20.25;;
1412;SDS011;701;52.526;13.408;2023-04-15T00:20:57;36.88;;;19.48;;
1412;SDS011;701;52.526;13.408;2023-04-15T00:23:23;38.70;;;19.83;;
1412;SDS011;701;52.526;13.408;2023-04-15T00:25:50;40.25;;;20.25;;
1412;SDS011;701;52.526;13.408;2023-04-15T00:28:16;39.92;;;20.02;;
1412;SDS011;701;52.526;13.408;2023-04-15T00:30:42;40.58;;;20.48;;
1412;SDS011;701;52.526;13.408;2023-04-15T00:33:08;43.13;;;20.80;;
1412;SDS011;701;52.526;13.408;2023-04-15T00:35:34;39.75;;;19.55;;
1412;SDS011;701;52.526;13.408;2023-04-15T00:38:02;41.30;;;20.88;;
1412;SDS011;701;52.526;13.408;2023-04-15T00:40:29;38.80;;;21.17;;
1412;SDS011;701;52.526;13.408;2023-04-15T00:42:55;42.13;;;21.95;;
1412;SDS011;701;52.526;13.408;2023-04-15T00:45:20;39.17;;;20.43;;
1412;SDS011;701;52.526;13.408;2023-04-15T00:47:46;42.78;;;21.02;;
1412;SDS011;701;52.526;13.408;2023-04-15T00:50:13;44.47;;;22.13;;
1412;SDS011;701;52.526;13.408;2023-04-15T00:52:39;44.80;;;22.13;;
1412;SDS011;701;52.526;13.408;2023-04-15T00:55:05;45.13;;;22.45;;
1412;SDS011;701;52.526;13.408;2023-04-15T00:57:31;44.97;;;22.13;;
1412;SDS011;701;52.526;13.408;2023-04-15T00:59:57;44.45;;;22.60;;
1412;SDS011;701;52.526;13.408;2023-04-15T01:02:24;52.30;;;22.70;;
1412;SDS011;701;52.526;13.408;2023-04-15T01:04:51;48.15;;;22.65;;
1412;SDS011;701;52.526;13.408;2023-04-15T01:07:17;48.47;;;23.15;;
1412;SDS011;701;52.526;13.408;2023-04-15T01:09:43;46.85;;;23.02;;
1412;SDS011;701;52.526;13.408;2023-04-15T01:12:11;50.28;;;23.13;;
1412;SDS011;701;52.526;13.408;2023-04-15T01:14:38;48.45;;;22.55;;
1412;SDS011;701;52.526;13.408;2023-04-15T01:17:04;50.45;;;23.75;;
1412;SDS011;701;52.526;13.408;2023-04-15T01:19:31;48.80;;;22.52;;
1412;SDS011;701;52.526;13.408;2023-04-15T01:21:57;49.50;;;23.20;;
1412;SDS011;701;52.526;13.408;2023-04-15T01:24:23;55.72;;;23.75;;
1412;SDS011;701;52.526;13.408;2023-04-15T01:26:52;54.83;;;23.95;;
1412;SDS011;701;52.526;13.408;2023-04-15T01:29:18;48.67;;;23.43;;
1412;SDS011;701;52.526;13.408;2023-04-15T01:31:50;49.80;;;23.92;;
1412;SDS011;701;52.526;13.408;2023-04-15T01:34:17;50.90;;;22.80;;
1412;SDS011;701;52.526;13.408;2023-04-15T01:36:43;49.67;;;23.60;;
1412;SDS011;701;52.526;13.408;2023-04-15T01:39:09;49.90;;;23.10;;
1412;SDS011;701;52.526;13.408;2023-04-15T01:41:35;53.08;;;24.65;;
1412;SDS011;701;52.526;13.408;2023-04-15T01:44:00;49.83;;;23.63;;
1412;SDS011;701;52.526;13.408;2023-04-15T01:46:26;50.17;;;23.27;;
1412;SDS011;701;52.526;13.408;2023-04-15T01:48:52;51.87;;;23.13;;
1412;SDS011;701;52.526;13.408;2023-04-15T01:51:18;55.83;;;24.48;;
1412;SDS011;701;52.526;13.408;2023-04-15T01:53:43;56.55;;;23.75;;
1412;SDS011;701;52.526;13.408;2023-04-15T01:56:10;52.95;;;23.45;;
1412;SDS011;701;52.526;13.408;2023-04-15T01:58:36;51.72;;;23.27;;
1412;SDS011;701;52.526;13.408;2023-04-15T02:01:02;52.50;;;24.65;;
1412;SDS011;701;52.526;13.408;2023-04-15T02:03:30;48.63;;;23.00;;
1412;SDS011;701;52.526;13.408;2023-04-15T02:05:56;53.38;;;24.33;;
1412;SDS011;701;52.526;13.408;2023-04-15T02:08:22;53.13;;;23.65;;
1412;SDS011;701;52.526;13.408;2023-04-15T02:10:48;56.22;;;24.00;;
1412;SDS011;701;52.526;13.408;2023-04-15T02:13:14;59.67;;;24.03;;
1412;SDS011;701;52.526;13.408;2023-04-15T02:15:45;52.67;;;24.05;;
1412;SDS011;701;52.526;13.408;2023-04-15T02:18:17;51.90;;;23.95;;
1412;SDS011;701;52.526;13.408;2023-04-15T02:20:42;50.23;;;22.90;;
1412;SDS011;701;52.526;13.408;2023-04-15T02:23:09;51.10;;;22.73;;
1412;SDS011;701;52.526;13.408;2023-04-15T02:25:36;59.45;;;25.38;;
1412;SDS011;701;52.526;13.408;2023-04-15T02:28:07;53.35;;;22.63;;
1412;SDS011;701;52.526;13.408;2023-04-15T02:30:32;50.10;;;24.27;;
1412;SDS011;701;52.526;13.408;2023-04-15T02:33:00;52.10;;;23.50;;
1412;SDS011;701;52.526;13.408;2023-04-15T02:35:27;54.33;;;23.50;;
1412;SDS011;701;52.526;13.408;2023-04-15T02:37:53;57.00;;;23.45;;
1412;SDS011;701;52.526;13.408;2023-04-15T02:40:19;52.77;;;24.57;;
1412;SDS011;701;52.526;13.408;2023-04-15T02:42:44;50.47;;;23.60;;
1412;SDS011;701;52.526;13.408;2023-04-15T02:45:13;54.42;;;23.88;;
1412;SDS011;701;52.526;13.408;2023-04-15T02:47:40;51.25;;;24.30;;
1412;SDS011;701;52.526;13.408;2023-04-15T02:50:08;50.20;;;23.52;;
1412;SDS011;701;52.526;13.408;2023-04-15T02:52:38;52.03;;;23.70;;
1412;SDS011;701;52.526;13.408;2023-04-15T02:55:05;54.45;;;23.95;;
1412;SDS011;701;52.526;13.408;2023-04-15T02:57:33;56.60;;;25.45;;
1412;SDS011;701;52.526;13.408;2023-04-15T03:00:04;52.88;;;23.38;;
1412;SDS011;701;52.526;13.408;2023-04-15T03:02:34;54.00;;;23.25;;
1412;SDS011;701;52.526;13.408;2023-04-15T03:05:01;56.17;;;23.30;;
1412;SDS011;701;52.526;13.408;2023-04-15T03:07:27;51.55;;;23.60;;
1412;SDS011;701;52.526;13.408;2023-04-15T03:09:53;49.88;;;22.90;;
1412;SDS011;701;52.526;13.408;2023-04-15T03:12:19;51.67;;;24.13;;
1412;SDS011;701;52.526;13.408;2023-04-15T03:14:45;49.53;;;23.77;;
1412;SDS011;701;52.526;13.408;2023-04-15T03:17:11;52.88;;;23.75;;
1412;SDS011;701;52.526;13.408;2023-04-15T03:19:37;49.85;;;22.50;;
1412;SDS011;701;52.526;13.408;2023-04-15T03:22:03;48.92;;;23.60;;
1412;SDS011;701;52.526;13.408;2023-04-15T03:24:29;52.13;;;22.95;;
1412;SDS011;701;52.526;13.408;2023-04-15T03:26:56;49.92;;;22.88;;
1412;SDS011;701;52.526;13.408;2023-04-15T03:29:22;48.80;;;22.48;;
1412;SDS011;701;52.526;13.408;2023-04-15T03:31:48;52.00;;;23.38;;
1412;SDS011;701;52.526;13.408;2023-04-15T03:34:15;48.67;;;22.77;;
1412;SDS011;701;52.526;13.408;2023-04-15T03:36:40;48.40;;;22.47;;
1412;SDS011;701;52.526;13.408;2023-04-15T03:39:06;45.42;;;22.08;;
1412;SDS011;701;52.526;13.408;2023-04-15T03:41:32;49.47;;;23.17;;
1412;SDS011;701;52.526;13.408;2023-04-15T03:43:58;44.38;;;21.50;;
1412;SDS011;701;52.526;13.408;2023-04-15T03:46:24;47.45;;;22.60;;
1412;SDS011;701;52.526;13.408;2023-04-15T03:48:49;44.42;;;21.15;;
1412;SDS011;701;52.526;13.408;2023-04-15T03:51:15;47.07;;;21.30;;
1412;SDS011;701;52.526;13.408;2023-04-15T03:53:41;46.42;;;22.10;;
1412;SDS011;701;52.526;13.408;2023-04-15T03:56:06;47.13;;;21.57;;
1412;SDS011;701;52.526;13.408;2023-04-15T03:58:32;42.80;;;20.65;;
1412;SDS011;701;52.526;13.408;2023-04-15T04:00:58;44.73;;;20.33;;
1412;SDS011;701;52.526;13.408;2023-04-15T04:03:23;45.95;;;20.40;;
1412;SDS011;701;52.526;13.408;2023-04-15T04:05:49;42.17;;;20.03;;
1412;SDS011;701;52.526;13.408;2023-04-15T04:08:15;41.90;;;19.85;;
1412;SDS011;701;52.526;13.408;2023-04-15T04:10:43;42.08;;;20.63;;
1412;SDS011;701;52.526;13.408;2023-04-15T04:13:09;46.10;;;20.93;;
1412;SDS011;701;52.526;13.408;2023-04-15T04:15:34;41.80;;;19.85;;
1412;SDS011;701;52.526;13.408;2023-04-15T04:18:00;40.67;;;19.73;;
1412;SDS011;701;52.526;13.408;2023-04-15T04:20:26;39.83;;;20.30;;
1412;SDS011;701;52.526;13.408;2023-04-15T04:22:52;42.08;;;20.45;;
1412;SDS011;701;52.526;13.408;2023-04-15T04:25:17;44.10;;;20.33;;
1412;SDS011;701;52.526;13.408;2023-04-15T04:27:43;39.83;;;20.88;;
1412;SDS011;701;52.526;13.408;2023-04-15T04:30:10;37.50;;;18.53;;
1412;SDS011;701;52.526;13.408;2023-04-15T04:32:36;40.80;;;19.63;;
1412;SDS011;701;52.526;13.408;2023-04-15T04:35:02;38.58;;;19.23;;
1412;SDS011;701;52.526;13.408;2023-04-15T04:37:29;36.78;;;19.17;;
1412;SDS011;701;52.526;13.408;2023-04-15T04:39:55;36.50;;;20.17;;
1412;SDS011;701;52.526;13.408;2023-04-15T04:42:21;42.90;;;20.30;;
1412;SDS011;701;52.526;13.408;2023-04-15T04:44:46;36.75;;;18.90;;
1412;SDS011;701;52.526;13.408;2023-04-15T04:47:12;36.70;;;18.07;;
1412;SDS011;701;52.526;13.408;2023-04-15T04:49:38;36.28;;;19.40;;
1412;SDS011;701;52.526;13.408;2023-04-15T04:52:05;36.88;;;18.67;;
1412;SDS011;701;52.526;13.408;2023-04-15T04:54:31;34.92;;;18.75;;
1412;SDS011;701;52.526;13.408;2023-04-15T04:56:57;35.37;;;18.57;;
1412;SDS011;701;52.526;13.408;2023-04-15T04:59:23;37.20;;;18.73;;
1412;SDS011;701;52.526;13.408;2023-04-15T05:01:49;35.10;;;18.67;;
1412;SDS011;701;52.526;13.408;2023-04-15T05:04:15;36.22;;;18.98;;
1412;SDS011;701;52.526;13.408;2023-04-15T05:06:41;31.52;;;17.50;;
1412;SDS011;701;52.526;13.408;2023-04-15T05:09:06;36.67;;;18.90;;
1412;SDS011;701;52.526;13.408;2023-04-15T05:11:32;36.70;;;18.08;;
1412;SDS011;701;52.526;13.408;2023-04-15T05:13:58;33.57;;;17.17;;
1412;SDS011;701;52.526;13.408;2023-04-15T05:16:25;35.53;;;17.02;;
1412;SDS011;701;52.526;13.408;2023-04-15T05:18:51;35.80;;;17.40;;
1412;SDS011;701;52.526;13.408;2023-04-15T05:21:17;34.93;;;17.70;;
1412;SDS011;701;52.526;13.408;2023-04-15T05:23:43;33.85;;;17.73;;
1412;SDS011;701;52.526;13.408;2023-04-15T05:26:09;31.98;;;17.55;;
1412;SDS011;701;52.526;13.408;2023-04-15T05:28:34;33.60;;;15.87;;
1412;SDS011;701;52.526;13.408;2023-04-15T05:31:00;32.13;;;16.92;;
1412;SDS011;701;52.526;13.408;2023-04-15T05:33:26;28.10;;;15.80;;
1412;SDS011;701;52.526;13.408;2023-04-15T05:35:52;28.42;;;15.70;;
1412;SDS011;701;52.526;13.408;2023-04-15T05:38:17;26.83;;;15.37;;
1412;SDS011;701;52.526;13.408;2023-04-15T05:40:43;27.38;;;15.07;;
1412;SDS011;701;52.526;13.408;2023-04-15T05:43:09;28.53;;;15.17;;
1412;SDS011;701;52.526;13.408;2023-04-15T05:45:34;26.60;;;15.60;;
1412;SDS011;701;52.526;13.408;2023-04-15T05:48:00;26.30;;;15.05;;
1412;SDS011;701;52.526;13.408;2023-04-15T05:50:26;25.80;;;14.98;;
1412;SDS011;701;52.526;13.408;2023-04-15T05:52:51;26.10;;;15.07;;
1412;SDS011;701;52.526;13.408;2023-04-15T05:55:20;25.23;;;13.88;;
1412;SDS011;701;52.526;13.408;2023-04-15T05:57:46;24.67;;;14.23;;
1412;SDS011;701;52.526;13.408;2023-04-15T06:00:12;25.00;;;13.40;;
1412;SDS011;701;52.526;13.408;2023-04-15T06:02:38;26.00;;;14.25;;
1412;SDS011;701;52.526;13.408;2023-04-15T06:05:04;24.90;;;13.85;;
1412;SDS011;701;52.526;13.408;2023-04-15T06:07:34;23.50;;;14.02;;
1412;SDS011;701;52.526;13.408;2023-04-15T06:10:03;25.00;;;15.40;;
1412;SDS011;701;52.526;13.408;2023-04-15T06:12:29;24.83;;;13.77;;
1412;SDS011;701;52.526;13.408;2023-04-15T06:14:55;20.80;;;12.25;;
1412;SDS011;701;52.526;13.408;2023-04-15T06:17:21;19.50;;;12.57;;
1412;SDS011;701;52.526;13.408;2023-04-15T06:19:47;21.63;;;13.00;;
1412;SDS011;701;52.526;13.408;2023-04-15T06:22:14;19.60;;;12.23;;
1412;SDS011;701;52.526;13.408;2023-04-15T06:24:40;22.25;;;12.00;;
1412;SDS011;701;52.526;13.408;2023-04-15T06:27:06;20.13;;;12.25;;
1412;SDS011;701;52.526;13.408;2023-04-15T06:29:32;20.70;;;11.80;;
1412;SDS011;701;52.526;13.408;2023-04-15T06:31:57;20.27;;;12.30;;
1412;SDS011;701;52.526;13.408;2023-04-15T06:34:23;17.77;;;11.40;;
1412;SDS011;701;52.526;13.408;2023-04-15T06:36:49;17.27;;;11.32;;
1412;SDS011;701;52.526;13.408;2023-04-15T06:39:15;18.75;;;10.85;;
1412;SDS011;701;52.526;13.408;2023-04-15T06:41:41;18.37;;;10.87;;
1412;SDS011;701;52.526;13.408;2023-04-15T06:44:07;17.67;;;10.65;;
1412;SDS011;701;52.526;13.408;2023-04-15T06:46:33;17.42;;;10.65;;
1412;SDS011;701;52.526;13.408;2023-04-15T06:48:58;16.27;;;10.68;;
1412;SDS011;701;52.526;13.408;2023-04-15T06:51:24;16.77;;;10.43;;
1412;SDS011;701;52.526;13.408;2023-04-15T06:53:50;15.20;;;9.50;;
1412;SDS011;701;52.526;13.408;2023-04-15T06:56:16;16.90;;;9.95;;
1412;SDS011;701;52.526;13.408;2023-04-15T06:58:41;14.77;;;9.70;;
1412;SDS011;701;52.526;13.408;2023-04-15T07:01:07;17.63;;;10.20;;
1412;SDS011;701;52.526;13.408;2023-04-15T07:03:33;14.23;;;9.27;;
1412;SDS011;701;52.526;13.408;2023-04-15T07:05:59;18.35;;;10.80;;
1412;SDS011;701;52.526;13.408;2023-04-15T07:08:25;17.73;;;10.15;;
1412;SDS011;701;52.526;13.408;2023-04-15T07:10:51;16.40;;;9.63;;
1412;SDS011;701;52.526;13.408;2023-04-15T07:13:18;15.23;;;10.10;;
1412;SDS011;701;52.526;13.408;2023-04-15T07:15:44;16.90;;;9.63;;
1412;SDS011;701;52.526;13.408;2023-04-15T07:18:10;22.15;;;12.88;;
1412;SDS011;701;52.526;13.408;2023-04-15T07:20:36;14.53;;;9.80;;
1412;SDS011;701;52.526;13.408;2023-04-15T07:23:02;15.75;;;9.48;;
1412;SDS011;701;52.526;13.408;2023-04-15T07:25:27;21.13;;;10.30;;
1412;SDS011;701;52.526;13.408;2023-04-15T07:27:53;16.30;;;9.52;;
1412;SDS011;701;52.526;13.408;2023-04-15T07:30:19;14.67;;;9.30;;
1412;SDS011;701;52.526;13.408;2023-04-15T07:32:44;15.98;;;9.05;;
1412;SDS011;701;52.526;13.408;2023-04-15T07:35:11;14.57;;;9.57;;
1412;SDS011;701;52.526;13.408;2023-04-15T07:37:37;18.90;;;9.95;;
1412;SDS011;701;52.526;13.408;2023-04-15T07:40:03;17.07;;;10.17;;
1412;SDS011;701;52.526;13.408;2023-04-15T07:42:30;18.15;;;10.00;;
1412;SDS011;701;52.526;13.408;2023-04-15T07:44:57;15.63;;;9.68;;
1412;SDS011;701;52.526;13.408;2023-04-15T07:47:23;17.67;;;10.80;;
1412;SDS011;701;52.526;13.408;2023-04-15T07:49:49;17.00;;;10.13;;
1412;SDS011;701;52.526;13.408;2023-04-15T07:52:17;15.65;;;10.02;;
1412;SDS011;701;52.526;13.408;2023-04-15T07:54:43;16.07;;;10.30;;
1412;SDS011;701;52.526;13.408;2023-04-15T07:57:09;17.60;;;10.10;;
1412;SDS011;701;52.526;13.408;2023-04-15T07:59:35;15.98;;;10.60;;
1412;SDS011;701;52.526;13.408;2023-04-15T08:02:01;16.98;;;10.00;;
1412;SDS011;701;52.526;13.408;2023-04-15T08:04:28;15.20;;;10.33;;
1412;SDS011;701;52.526;13.408;2023-04-15T08:06:54;19.70;;;11.63;;
1412;SDS011;701;52.526;13.408;2023-04-15T08:09:20;17.05;;;10.50;;
1412;SDS011;701;52.526;13.408;2023-04-15T08:11:47;17.42;;;11.02;;
1412;SDS011;701;52.526;13.408;2023-04-15T08:14:14;16.70;;;10.90;;
1412;SDS011;701;52.526;13.408;2023-04-15T08:16:39;16.13;;;9.90;;
1412;SDS011;701;52.526;13.408;2023-04-15T08:19:05;18.17;;;10.07;;
1412;SDS011;701;52.526;13.408;2023-04-15T08:21:31;17.00;;;10.32;;
1412;SDS011;701;52.526;13.408;2023-04-15T08:23:57;18.20;;;10.97;;
1412;SDS011;701;52.526;13.408;2023-04-15T08:26:22;17.83;;;10.13;;
1412;SDS011;701;52.526;13.408;2023-04-15T08:28:48;19.27;;;10.60;;
1412;SDS011;701;52.526;13.408;2023-04-15T08:31:15;18.17;;;10.93;;
1412;SDS011;701;52.526;13.408;2023-04-15T08:33:41;21.42;;;11.25;;
1412;SDS011;701;52.526;13.408;2023-04-15T08:36:07;18.80;;;11.75;;
1412;SDS011;701;52.526;13.408;2023-04-15T08:38:33;23.55;;;12.10;;
1412;SDS011;701;52.526;13.408;2023-04-15T08:40:59;19.65;;;11.68;;
1412;SDS011;701;52.526;13.408;2023-04-15T08:43:33;18.83;;;11.93;;
1412;SDS011;701;52.526;13.408;2023-04-15T08:46:00;18.52;;;11.20;;
1412;SDS011;701;52.526;13.408;2023-04-15T08:48:27;19.77;;;11.20;;
1412;SDS011;701;52.526;13.408;2023-04-15T08:50:56;17.20;;;10.70;;
1412;SDS011;701;52.526;13.408;2023-04-15T08:53:23;17.98;;;11.10;;
1412;SDS011;701;52.526;13.408;2023-04-15T08:55:50;18.40;;;10.90;;
1412;SDS011;701;52.526;13.408;2023-04-15T08:58:17;16.08;;;10.90;;
1412;SDS011;701;52.526;13.408;2023-04-15T09:00:43;19.47;;;11.87;;
1412;SDS011;701;52.526;13.408;2023-04-15T09:03:10;17.33;;;11.18;;
1412;SDS011;701;52.526;13.408;2023-04-15T09:05:36;16.70;;;11.30;;
1412;SDS011;701;52.526;13.408;2023-04-15T09:08:02;18.88;;;11.68;;
1412;SDS011;701;52.526;13.408;2023-04-15T09:10:29;17.50;;;10.65;;
1412;SDS011;701;52.526;13.408;2023-04-15T09:12:56;18.08;;;11.35;;
1412;SDS011;701;52.526;13.408;2023-04-15T09:15:25;19.73;;;11.40;;
1412;SDS011;701;52.526;13.408;2023-04-15T09:17:53;19.17;;;12.00;;
1412;SDS011;701;52.526;13.408;2023-04-15T09:20:20;18.38;;;11.50;;
1412;SDS011;701;52.526;13.408;2023-04-15T09:22:48;18.30;;;11.13;;
1412;SDS011;701;52.526;13.408;2023-04-15T09:27:47;18.10;;;12.00;;
1412;SDS011;701;52.526;13.408;2023-04-15T09:30:18;17.23;;;11.52;;
1412;SDS011;701;52.526;13.408;2023-04-15T09:32:50;17.60;;;11.20;;
1412;SDS011;701;52.526;13.408;2023-04-15T09:35:18;18.98;;;11.48;;
1412;SDS011;701;52.526;13.408;2023-04-15T09:37:46;17.60;;;10.68;;
1412;SDS011;701;52.526;13.408;2023-04-15T09:40:12;17.80;;;11.05;;
1412;SDS011;701;52.526;13.408;2023-04-15T09:42:54;16.90;;;10.82;;
1412;SDS011;701;52.526;13.408;2023-04-15T09:45:21;18.25;;;11.60;;
1412;SDS011;701;52.526;13.408;2023-04-15T09:47:47;16.98;;;11.10;;
1412;SDS011;701;52.526;13.408;2023-04-15T09:50:13;16.33;;;10.65;;
1412;SDS011;701;52.526;13.408;2023-04-15T09:52:41;17.00;;;10.63;;
1412;SDS011;701;52.526;13.408;2023-04-15T09:55:08;17.07;;;10.53;;
1412;SDS011;701;52.526;13.408;2023-04-15T09:57:36;17.83;;;10.77;;
1412;SDS011;701;52.526;13.408;2023-04-15T10:00:03;18.95;;;11.73;;
1412;SDS011;701;52.526;13.408;2023-04-15T10:02:31;17.05;;;10.90;;
1412;SDS011;701;52.526;13.408;2023-04-15T10:04:58;22.17;;;11.40;;
1412;SDS011;701;52.526;13.408;2023-04-15T10:07:26;16.77;;;10.57;;
1412;SDS011;701;52.526;13.408;2023-04-15T10:09:52;16.33;;;10.82;;
1412;SDS011;701;52.526;13.408;2023-04-15T10:12:19;16.00;;;10.93;;
1412;SDS011;701;52.526;13.408;2023-04-15T10:14:52;15.70;;;10.77;;
1412;SDS011;701;52.526;13.408;2023-04-15T10:17:22;17.77;;;10.77;;
1412;SDS011;701;52.526;13.408;2023-04-15T10:19:52;18.60;;;10.70;;
1412;SDS011;701;52.526;13.408;2023-04-15T10:22:19;17.33;;;10.80;;
1412;SDS011;701;52.526;13.408;2023-04-15T10:24:47;17.27;;;11.45;;
1412;SDS011;701;52.526;13.408;2023-04-15T10:27:16;17.35;;;10.90;;
1412;SDS011;701;52.526;13.408;2023-04-15T10:29:43;18.92;;;10.30;;
1412;SDS011;701;52.526;13.408;2023-04-15T10:32:09;18.30;;;10.50;;
1412;SDS011;701;52.526;13.408;2023-04-15T10:34:35;20.48;;;11.07;;
1412;SDS011;701;52.526;13.408;2023-04-15T10:37:01;16.27;;;11.15;;
1412;SDS011;701;52.526;13.408;2023-04-15T10:39:41;17.40;;;11.32;;
1412;SDS011;701;52.526;13.408;2023-04-15T10:42:12;19.90;;;11.20;;
1412;SDS011;701;52.526;13.408;2023-04-15T10:44:44;15.33;;;10.80;;
1412;SDS011;701;52.526;13.408;2023-04-15T10:47:13;21.27;;;13.18;;
1412;SDS011;701;52.526;13.408;2023-04-15T10:49:43;19.48;;;12.52;;
1412;SDS011;701;52.526;13.408;2023-04-15T10:52:11;16.23;;;10.63;;
1412;SDS011;701;52.526;13.408;2023-04-15T10:54:38;15.80;;;10.20;;
1412;SDS011;701;52.526;13.408;2023-04-15T10:59:37;20.70;;;12.45;;
1412;SDS011;701;52.526;13.408;2023-04-15T11:02:39;17.13;;;10.85;;
1412;SDS011;701;52.526;13.408;2023-04-15T11:05:19;19.40;;;11.25;;
1412;SDS011;701;52.526;13.408;2023-04-15T11:07:51;15.35;;;10.30;;
1412;SDS011;701;52.526;13.408;2023-04-15T11:12:56;16.55;;;10.10;;
1412;SDS011;701;52.526;13.408;2023-04-15T11:17:56;15.30;;;10.23;;
1412;SDS011;701;52.526;13.408;2023-04-15T11:20:23;17.73;;;11.00;;
1412;SDS011;701;52.526;13.408;2023-04-15T11:22:52;14.60;;;10.13;;
1412;SDS011;701;52.526;13.408;2023-04-15T11:25:25;15.43;;;9.70;;
1412;SDS011;701;52.526;13.408;2023-04-15T11:27:55;16.23;;;10.27;;
1412;SDS011;701;52.526;13.408;2023-04-15T11:30:24;16.40;;;9.93;;
1412;SDS011;701;52.526;13.408;2023-04-15T11:32:53;16.60;;;10.50;;
1412;SDS011;701;52.526;13.408;2023-04-15T11:35:22;16.50;;;10.77;;
1412;SDS011;701;52.526;13.408;2023-04-15T11:37:48;17.48;;;10.70;;
1412;SDS011;701;52.526;13.408;2023-04-15T11:40:15;18.25;;;11.18;;
1412;SDS011;701;52.526;13.408;2023-04-15T11:42:42;15.27;;;10.27;;
1412;SDS011;701;52.526;13.408;2023-04-15T11:45:12;16.85;;;10.40;;
1412;SDS011;701;52.526;13.408;2023-04-15T11:47:40;17.30;;;10.80;;
1412;SDS011;701;52.526;13.408;2023-04-15T11:50:13;18.00;;;11.32;;
1412;SDS011;701;52.526;13.408;2023-04-15T11:52:58;19.33;;;10.85;;
1412;SDS011;701;52.526;13.408;2023-04-15T11:55:26;15.93;;;10.32;;
1412;SDS011;701;52.526;13.408;2023-04-15T12:00:56;16.58;;;10.75;;
1412;SDS011;701;52.526;13.408;2023-04-15T12:03:28;17.52;;;11.15;;
1412;SDS011;701;52.526;13.408;2023-04-15T12:11:43;18.57;;;11.00;;
1412;SDS011;701;52.526;13.408;2023-04-15T12:16:51;17.30;;;10.10;;
1412;SDS011;701;52.526;13.408;2023-04-15T12:19:22;17.35;;;10.27;;
1412;SDS011;701;52.526;13.408;2023-04-15T12:21:50;16.17;;;10.38;;
1412;SDS011;701;52.526;13.408;2023-04-15T12:24:19;16.53;;;9.73;;
1412;SDS011;701;52.526;13.408;2023-04-15T12:26:50;17.65;;;10.30;;
1412;SDS011;701;52.526;13.408;2023-04-15T12:29:18;16.80;;;10.18;;
1412;SDS011;701;52.526;13.408;2023-04-15T12:32:07;15.70;;;10.52;;
1412;SDS011;701;52.526;13.408;2023-04-15T12:34:51;17.30;;;10.35;;
1412;SDS011;701;52.526;13.408;2023-04-15T12:37:20;14.30;;;8.50;;
1412;SDS011;701;52.526;13.408;2023-04-15T12:39:47;14.63;;;8.63;;
1412;SDS011;701;52.526;13.408;2023-04-15T12:42:14;13.38;;;8.73;;
1412;SDS011;701;52.526;13.408;2023-04-15T12:44:41;12.85;;;8.27;;
1412;SDS011;701;52.526;13.408;2023-04-15T12:47:07;19.90;;;12.20;;
1412;SDS011;701;52.526;13.408;2023-04-15T12:49:34;14.98;;;9.20;;
1412;SDS011;701;52.526;13.408;2023-04-15T12:52:00;12.38;;;8.18;;
1412;SDS011;701;52.526;13.408;2023-04-15T12:54:27;15.45;;;8.35;;
1412;SDS011;701;52.526;13.408;2023-04-15T12:56:53;14.80;;;8.10;;
1412;SDS011;701;52.526;13.408;2023-04-15T12:59:20;16.05;;;9.27;;
1412;SDS011;701;52.526;13.408;2023-04-15T13:01:48;11.80;;;7.72;;
1412;SDS011;701;52.526;13.408;2023-04-15T13:04:15;14.35;;;8.95;;
1412;SDS011;701;52.526;13.408;2023-04-15T13:06:41;13.68;;;9.35;;
1412;SDS011;701;52.526;13.408;2023-04-15T13:09:07;12.85;;;8.60;;
1412;SDS011;701;52.526;13.408;2023-04-15T13:11:33;12.70;;;8.52;;
1412;SDS011;701;52.526;13.408;2023-04-15T13:13:59;14.32;;;8.27;;
1412;SDS011;701;52.526;13.408;2023-04-15T13:16:26;14.52;;;8.70;;
1412;SDS011;701;52.526;13.408;2023-04-15T13:18:52;13.20;;;7.77;;
1412;SDS011;701;52.526;13.408;2023-04-15T13:21:18;15.85;;;8.50;;
1412;SDS011;701;52.526;13.408;2023-04-15T13:23:44;15.02;;;8.10;;
1412;SDS011;701;52.526;13.408;2023-04-15T13:26:10;12.73;;;8.10;;
1412;SDS011;701;52.526;13.408;2023-04-15T13:28:36;11.70;;;7.50;;
1412;SDS011;701;52.526;13.408;2023-04-15T13:31:02;12.40;;;7.90;;
1412;SDS011;701;52.526;13.408;2023-04-15T13:33:29;17.42;;;8.05;;
1412;SDS011;701;52.526;13.408;2023-04-15T13:35:55;11.20;;;7.20;;
1412;SDS011;701;52.526;13.408;2023-04-15T13:38:21;12.13;;;7.05;;
1412;SDS011;701;52.526;13.408;2023-04-15T13:40:48;11.55;;;6.95;;
1412;SDS011;701;52.526;13.408;2023-04-15T13:43:14;13.47;;;6.70;;
1412;SDS011;701;52.526;13.408;2023-04-15T13:45:40;11.93;;;6.82;;
1412;SDS011;701;52.526;13.408;2023-04-15T13:48:06;10.07;;;6.63;;
1412;SDS011;701;52.526;13.408;2023-04-15T13:50:31;10.37;;;6.23;;
1412;SDS011;701;52.526;13.408;2023-04-15T13:52:57;11.77;;;7.07;;
1412;SDS011;701;52.526;13.408;2023-04-15T13:55:26;12.80;;;7.07;;
1412;SDS011;701;52.526;13.408;2023-04-15T13:58:11;14.30;;;7.40;;
1412;SDS011;701;52.526;13.408;2023-04-15T14:00:37;14.18;;;7.00;;
1412;SDS011;701;52.526;13.408;2023-04-15T14:03:03;11.93;;;7.27;;
1412;SDS011;701;52.526;13.408;2023-04-15T14:05:29;12.05;;;7.40;;
1412;SDS011;701;52.526;13.408;2023-04-15T14:07:55;12.10;;;7.18;;
1412;SDS011;701;52.526;13.408;2023-04-15T14:10:21;10.70;;;6.70;;
1412;SDS011;701;52.526;13.408;2023-04-15T14:12:46;12.00;;;7.35;;
1412;SDS011;701;52.526;13.408;2023-04-15T14:15:12;13.23;;;7.80;;
1412;SDS011;701;52.526;13.408;2023-04-15T14:17:38;11.40;;;7.15;;
1412;SDS011;701;52.526;13.408;2023-04-15T14:20:06;10.88;;;6.70;;
1412;SDS011;701;52.526;13.408;2023-04-15T14:22:33;10.80;;;6.70;;
1412;SDS011;701;52.526;13.408;2023-04-15T14:24:58;11.63;;;6.90;;
1412;SDS011;701;52.526;13.408;2023-04-15T14:27:25;14.50;;;8.07;;
1412;SDS011;701;52.526;13.408;2023-04-15T14:29:51;10.52;;;6.18;;
1412;SDS011;701;52.526;13.408;2023-04-15T14:32:18;9.88;;;6.38;;
1412;SDS011;701;52.526;13.408;2023-04-15T14:34:44;10.13;;;6.45;;
1412;SDS011;701;52.526;13.408;2023-04-15T14:37:10;10.20;;;6.57;;
1412;SDS011;701;52.526;13.408;2023-04-15T14:39:35;10.50;;;6.57;;
1412;SDS011;701;52.526;13.408;2023-04-15T14:42:01;11.23;;;6.63;;
1412;SDS011;701;52.526;13.408;2023-04-15T14:44:27;10.88;;;5.93;;
1412;SDS011;701;52.526;13.408;2023-04-15T14:46:56;9.23;;;5.78;;
1412;SDS011;701;52.526;13.408;2023-04-15T14:49:22;10.07;;;5.72;;
1412;SDS011;701;52.526;13.408;2023-04-15T14:51:47;9.60;;;6.10;;
1412;SDS011;701;52.526;13.408;2023-04-15T14:54:13;11.20;;;6.25;;
1412;SDS011;701;52.526;13.408;2023-04-15T14:56:39;11.30;;;6.30;;
1412;SDS011;701;52.526;13.408;2023-04-15T14:59:05;10.93;;;6.50;;
1412;SDS011;701;52.526;13.408;2023-04-15T15:01:32;9.63;;;5.85;;
1412;SDS011;701;52.526;13.408;2023-04-15T15:03:58;11.25;;;6.65;;
1412;SDS011;701;52.526;13.408;2023-04-15T15:06:24;10.67;;;6.30;;
1412;SDS011;701;52.526;13.408;2023-04-15T15:08:50;10.23;;;5.85;;
1412;SDS011;701;52.526;13.408;2023-04-15T15:11:15;10.13;;;6.72;;